CheckWX is a tool to help pilots better visualize weather data.  It is not intended as a substitute for an official pre-flight weather briefing.

06:08:58 UTC

KQRH METAR
Camp Lemonier
Camp Lemonier, Djibouti
Current

13 mins ago

KQRH 230556Z AUTO VRB06KT 9999 CLR 32/23 A2990 RMK AO2 SLP112 WND DATA ESTMD T03190232 10324 20279
Observed
Apr-23 @ 05:56 UTC
Wind
  • Variable at 6 KTS
Visibility
10,000+ meters
Flight Rules
VFR
Cloud Levels
  • Clear skies
Temperature
32°C / 90°F
Dewpoint
23°C / 73°F
Heat Index
37°C / 99°F
Humidity
59%
Altimeter
29.9" Hg
Pressure
1012.52 hPa
Previous

1 hour ago

KQRH 230456Z AUTO VRB03KT 9999 CLR 30/24 A2988 RMK AO2 SLP105 WND DATA ESTMD T03040238
Observed
Apr-23 @ 04:56 UTC
Wind
  • Variable at 3 KTS
Visibility
10,000+ meters
Flight Rules
VFR
Cloud Levels
  • Clear skies
Temperature
30°C / 86°F
Dewpoint
24°C / 75°F
Heat Index
35°C / 95°F
Humidity
70%
Altimeter
29.88" Hg
Pressure
1011.82 hPa
Previous

2 hours ago

KQRH 230356Z AUTO 00000KT 9999 CLR 29/24 A2986 RMK AO2 SLP099 WND DATA ESTMD T02880240
Observed
Apr-23 @ 03:56 UTC
Visibility
10,000+ meters
Flight Rules
VFR
Cloud Levels
  • Clear skies
Temperature
29°C / 84°F
Dewpoint
24°C / 75°F
Heat Index
33°C / 92°F
Humidity
74%
Altimeter
29.86" Hg
Pressure
1011.22 hPa